Time;durP1;ratioP1;P1;durP2;ratioP2;P2;SDS_P1;SDS_P2;PMS_P1;PMS_P2;Temp;Humidity;BMP_temperature;BMP_pressure;BME280_temperature;BME280_humidity;BME280_pressure;Samples;Min_cycle;Max_cycle;Signal;HPM_P1;HPM_P2
2023/06/19 00:00:12;;;;;;;20.42;6.93;;;;;;;;;;7350117;19;20074;-63
2023/06/19 00:02:38;;;;;;;13.75;5.90;;;;;;;;;;7392517;19;20335;-64
2023/06/19 00:05:03;;;;;;;17.40;6.65;;;;;;;;;;7345596;19;20066;-64
2023/06/19 00:07:28;;;;;;;14.65;6.28;;;;;;;;;;7345695;19;20062;-63
2023/06/19 00:09:54;;;;;;;11.13;6.78;;;;;;;;;;7348518;19;20014;-62
2023/06/19 00:12:19;;;;;;;12.00;5.95;;;;;;;;;;7348774;19;20007;-61
2023/06/19 00:14:44;;;;;;;12.40;6.25;;;;;;;;;;7370517;19;20007;-64
2023/06/19 00:17:10;;;;;;;9.45;5.93;;;;;;;;;;7369027;19;20011;-62
2023/06/19 00:19:36;;;;;;;11.00;5.50;;;;;;;;;;7346564;19;20548;-63
2023/06/19 00:22:03;;;;;;;14.80;5.50;;;;;;;;;;7348138;19;20460;-63
2023/06/19 00:24:28;;;;;;;11.75;6.25;;;;;;;;;;7347619;19;20039;-63
2023/06/19 00:26:53;;;;;;;12.43;6.30;;;;;;;;;;7347207;19;20003;-63
2023/06/19 00:29:19;;;;;;;11.60;6.05;;;;;;;;;;7390925;19;20009;-60
2023/06/19 00:31:44;;;;;;;13.23;6.15;;;;;;;;;;7348035;19;20122;-62
2023/06/19 00:34:09;;;;;;;10.65;6.22;;;;;;;;;;7348313;19;20465;-63
2023/06/19 00:36:40;;;;;;;9.50;5.93;;;;;;;;;;7347931;19;20052;-62
2023/06/19 00:39:05;;;;;;;8.35;5.78;;;;;;;;;;7348853;19;20407;-61
2023/06/19 00:41:32;;;;;;;10.00;6.00;;;;;;;;;;7394992;19;20010;-61
2023/06/19 00:43:57;;;;;;;11.98;5.95;;;;;;;;;;7350339;19;20079;-61
2023/06/19 00:46:22;;;;;;;8.65;5.97;;;;;;;;;;7348399;19;20039;-64
2023/06/19 00:48:48;;;;;;;10.93;5.80;;;;;;;;;;7348310;19;20021;-63
2023/06/19 00:51:14;;;;;;;11.48;5.93;;;;;;;;;;7345491;19;20010;-63
2023/06/19 00:53:39;;;;;;;9.48;5.90;;;;;;;;;;7380896;19;20023;-62
2023/06/19 00:56:05;;;;;;;10.90;6.07;;;;;;;;;;7359501;19;20021;-63
2023/06/19 00:58:30;;;;;;;10.50;5.97;;;;;;;;;;7346192;19;20006;-61
2023/06/19 01:00:57;;;;;;;8.90;6.00;;;;;;;;;;7347060;19;20010;-62
2023/06/19 01:03:22;;;;;;;9.77;6.32;;;;;;;;;;7346422;19;20400;-63
2023/06/19 01:05:49;;;;;;;9.38;5.43;;;;;;;;;;7368209;19;20174;-63
2023/06/19 01:08:33;;;;;;;9.32;5.40;;;;;;;;;;7366902;19;20010;-62
2023/06/19 01:11:02;;;;;;;8.95;6.13;;;;;;;;;;7346175;19;20007;-62
2023/06/19 01:13:50;;;;;;;15.73;6.47;;;;;;;;;;7346672;19;20044;-62
2023/06/19 01:16:16;;;;;;;10.63;6.32;;;;;;;;;;7346146;19;20525;-63
2023/06/19 01:18:43;;;;;;;10.45;5.97;;;;;;;;;;7345686;19;20061;-62
2023/06/19 01:21:13;;;;;;;9.38;5.82;;;;;;;;;;7346462;19;20465;-62
2023/06/19 01:23:38;;;;;;;9.60;6.10;;;;;;;;;;7390530;19;20003;-63
2023/06/19 01:26:03;;;;;;;9.73;6.57;;;;;;;;;;7346941;19;20022;-63
2023/06/19 01:28:29;;;;;;;9.93;6.55;;;;;;;;;;7346039;19;20033;-63
2023/06/19 01:30:57;;;;;;;10.05;6.05;;;;;;;;;;7346514;19;20046;-64
2023/06/19 01:33:26;;;;;;;8.32;5.90;;;;;;;;;;7347239;19;20487;-62
2023/06/19 01:35:52;;;;;;;11.57;6.35;;;;;;;;;;7358937;19;20020;-62
2023/06/19 01:38:20;;;;;;;12.68;6.07;;;;;;;;;;7385000;19;20010;-62
2023/06/19 01:40:48;;;;;;;12.07;6.45;;;;;;;;;;7344590;19;20038;-61
2023/06/19 01:43:15;;;;;;;11.70;6.18;;;;;;;;;;7344098;19;20007;-61
2023/06/19 01:45:41;;;;;;;11.48;5.78;;;;;;;;;;7345921;19;20097;-60
2023/06/19 01:48:07;;;;;;;9.45;5.95;;;;;;;;;;7345171;19;20477;-62
2023/06/19 01:50:32;;;;;;;9.10;5.82;;;;;;;;;;7387915;19;20006;-63
2023/06/19 01:52:58;;;;;;;8.88;5.43;;;;;;;;;;7344921;19;20636;-64
2023/06/19 01:55:23;;;;;;;7.75;5.57;;;;;;;;;;7344847;19;20030;-63
2023/06/19 01:57:48;;;;;;;7.90;5.85;;;;;;;;;;7343420;19;20689;-63
2023/06/19 02:00:14;;;;;;;8.27;5.47;;;;;;;;;;7344997;19;20044;-63
2023/06/19 02:02:40;;;;;;;8.57;5.15;;;;;;;;;;7380670;19;20822;-62
2023/06/19 02:05:05;;;;;;;8.55;5.43;;;;;;;;;;7358460;19;20042;-62
2023/06/19 02:07:30;;;;;;;6.82;5.03;;;;;;;;;;7342984;19;20010;-64
2023/06/19 02:09:59;;;;;;;10.60;5.28;;;;;;;;;;7344663;19;20010;-62
2023/06/19 02:12:24;;;;;;;8.48;5.35;;;;;;;;;;7343940;19;20038;-60
2023/06/19 02:14:49;;;;;;;7.68;5.57;;;;;;;;;;7366369;19;20440;-62
2023/06/19 02:17:15;;;;;;;7.70;5.22;;;;;;;;;;7364991;19;20459;-62
2023/06/19 02:19:40;;;;;;;8.07;5.38;;;;;;;;;;7343888;19;20014;-64
2023/06/19 02:22:06;;;;;;;8.45;5.10;;;;;;;;;;7343579;19;20389;-63
2023/06/19 02:24:32;;;;;;;7.82;4.88;;;;;;;;;;7342833;19;20018;-63
2023/06/19 02:26:58;;;;;;;8.00;5.10;;;;;;;;;;7343163;19;20017;-63
2023/06/19 02:29:23;;;;;;;11.02;5.03;;;;;;;;;;7387466;19;20007;-63
2023/06/19 02:31:49;;;;;;;8.35;5.70;;;;;;;;;;7343465;19;20474;-62
2023/06/19 02:34:15;;;;;;;10.90;5.40;;;;;;;;;;7343962;19;20031;-64
2023/06/19 02:36:40;;;;;;;7.10;4.82;;;;;;;;;;7344274;19;20010;-63
2023/06/19 02:39:08;;;;;;;7.05;5.20;;;;;;;;;;7343097;19;20014;-63
2023/06/19 02:41:34;;;;;;;8.50;5.15;;;;;;;;;;7388213;19;20027;-63
2023/06/19 02:43:59;;;;;;;6.88;5.00;;;;;;;;;;7344850;19;20006;-63
2023/06/19 02:46:24;;;;;;;9.70;5.35;;;;;;;;;;7346719;19;20111;-64
2023/06/19 02:48:50;;;;;;;8.50;5.50;;;;;;;;;;7346154;19;20018;-64
2023/06/19 02:51:15;;;;;;;10.50;5.55;;;;;;;;;;7345883;19;20022;-63
2023/06/19 02:53:41;;;;;;;8.63;5.35;;;;;;;;;;7369392;19;19999;-62
2023/06/19 02:56:07;;;;;;;9.75;6.00;;;;;;;;;;7368119;19;20007;-62
2023/06/19 02:58:33;;;;;;;10.32;5.57;;;;;;;;;;7345262;19;20014;-62
2023/06/19 03:00:58;;;;;;;8.75;5.28;;;;;;;;;;7346439;19;20010;-62
2023/06/19 03:03:23;;;;;;;8.32;5.88;;;;;;;;;;7347099;19;20014;-62
2023/06/19 03:05:49;;;;;;;7.80;5.72;;;;;;;;;;7370749;19;20013;-63
2023/06/19 03:08:14;;;;;;;7.63;5.60;;;;;;;;;;7365795;19;20028;-63
2023/06/19 03:10:39;;;;;;;9.43;5.75;;;;;;;;;;7344556;19;20070;-63
2023/06/19 03:13:05;;;;;;;7.85;5.22;;;;;;;;;;7342758;19;20082;-63
2023/06/19 03:15:30;;;;;;;9.15;5.65;;;;;;;;;;7344624;19;20118;-63
2023/06/19 03:17:55;;;;;;;10.07;5.32;;;;;;;;;;7345926;19;20517;-63
2023/06/19 03:20:20;;;;;;;8.52;5.38;;;;;;;;;;7390117;19;20667;-62
2023/06/19 03:22:46;;;;;;;8.25;5.68;;;;;;;;;;7346343;19;20479;-62
2023/06/19 03:25:12;;;;;;;7.60;5.18;;;;;;;;;;7342717;19;20020;-63
2023/06/19 03:27:37;;;;;;;8.32;5.30;;;;;;;;;;7342655;19;20018;-63
2023/06/19 03:30:08;;;;;;;10.10;5.72;;;;;;;;;;7342158;19;20006;-63
2023/06/19 03:32:33;;;;;;;9.65;5.55;;;;;;;;;;7386607;19;20041;-63
2023/06/19 03:34:58;;;;;;;9.20;5.60;;;;;;;;;;7341394;19;20011;-62
2023/06/19 03:37:24;;;;;;;7.90;5.60;;;;;;;;;;7347485;19;20503;-63
2023/06/19 03:39:49;;;;;;;8.07;5.82;;;;;;;;;;7347301;19;20006;-63
2023/06/19 03:42:14;;;;;;;9.10;5.22;;;;;;;;;;7347254;19;20388;-63
2023/06/19 03:44:40;;;;;;;9.00;4.90;;;;;;;;;;7376928;19;20014;-62
2023/06/19 03:47:06;;;;;;;9.13;6.50;;;;;;;;;;7367405;19;20050;-63
2023/06/19 03:49:31;;;;;;;8.98;5.57;;;;;;;;;;7345568;19;20669;-63
2023/06/19 03:51:57;;;;;;;6.40;5.05;;;;;;;;;;7343532;19;20016;-63
2023/06/19 03:54:22;;;;;;;9.70;5.75;;;;;;;;;;7347205;19;20559;-63
2023/06/19 03:56:47;;;;;;;8.13;5.30;;;;;;;;;;7370828;19;20354;-63
2023/06/19 03:59:13;;;;;;;9.68;5.50;;;;;;;;;;7369634;19;20441;-63
2023/06/19 04:01:38;;;;;;;9.05;5.50;;;;;;;;;;7346056;19;19998;-63
2023/06/19 04:04:04;;;;;;;8.82;5.72;;;;;;;;;;7348034;19;20314;-63
2023/06/19 04:06:29;;;;;;;9.18;5.35;;;;;;;;;;7348323;19;20463;-62
2023/06/19 04:08:54;;;;;;;8.32;5.53;;;;;;;;;;7347837;19;20326;-62
2023/06/19 04:11:20;;;;;;;10.45;5.40;;;;;;;;;;7391481;19;19991;-63
2023/06/19 04:13:46;;;;;;;7.00;4.97;;;;;;;;;;7371245;19;20114;-62
2023/06/19 04:16:11;;;;;;;8.07;5.43;;;;;;;;;;7372179;19;20019;-62
2023/06/19 04:18:36;;;;;;;9.63;5.53;;;;;;;;;;7369735;19;20018;-62
2023/06/19 04:21:02;;;;;;;8.40;5.63;;;;;;;;;;7372529;19;20017;-62
2023/06/19 04:23:27;;;;;;;9.13;5.38;;;;;;;;;;7392819;19;20006;-62
2023/06/19 04:25:52;;;;;;;6.82;5.00;;;;;;;;;;7371488;19;20633;-62
2023/06/19 04:28:18;;;;;;;8.63;4.47;;;;;;;;;;7370400;19;20353;-63
2023/06/19 04:30:43;;;;;;;5.70;4.07;;;;;;;;;;7371541;19;20010;-61
2023/06/19 04:33:08;;;;;;;11.60;4.40;;;;;;;;;;7372459;19;20023;-62
2023/06/19 04:35:39;;;;;;;6.60;3.85;;;;;;;;;;7391784;19;20034;-62
2023/06/19 04:38:05;;;;;;;7.57;3.88;;;;;;;;;;7370585;19;20010;-63
2023/06/19 04:40:32;;;;;;;6.10;3.53;;;;;;;;;;7368713;19;20007;-61
2023/06/19 04:42:57;;;;;;;7.20;3.58;;;;;;;;;;7368921;19;20006;-63
2023/06/19 04:45:22;;;;;;;6.35;3.40;;;;;;;;;;7367870;19;20021;-62
2023/06/19 04:47:48;;;;;;;5.90;3.40;;;;;;;;;;7388363;19;20011;-65
2023/06/19 04:50:13;;;;;;;7.43;3.70;;;;;;;;;;7368507;19;20502;-63
2023/06/19 04:52:38;;;;;;;6.05;3.58;;;;;;;;;;7368322;19;20218;-71
2023/06/19 04:55:10;;;;;;;5.93;3.60;;;;;;;;;;7370711;19;20016;-69
2023/06/19 04:57:36;;;;;;;5.03;3.35;;;;;;;;;;7380500;19;20098;-72
2023/06/19 05:00:06;;;;;;;5.78;3.78;;;;;;;;;;7379728;19;20457;-72
2023/06/19 05:02:33;;;;;;;7.95;3.38;;;;;;;;;;7401090;19;20014;-72
2023/06/19 05:05:02;;;;;;;5.97;3.47;;;;;;;;;;7370019;19;20031;-72
2023/06/19 05:07:28;;;;;;;6.47;2.97;;;;;;;;;;7369982;19;20015;-71
2023/06/19 05:09:54;;;;;;;5.88;3.45;;;;;;;;;;7370965;19;20379;-72
2023/06/19 05:12:19;;;;;;;5.65;3.40;;;;;;;;;;7372557;19;20034;-72
2023/06/19 05:14:44;;;;;;;5.45;3.40;;;;;;;;;;7393903;19;20011;-72
2023/06/19 05:17:10;;;;;;;5.93;3.53;;;;;;;;;;7370872;19;20010;-71
2023/06/19 05:19:35;;;;;;;5.32;3.08;;;;;;;;;;7370497;19;20014;-72
2023/06/19 05:22:01;;;;;;;5.10;3.60;;;;;;;;;;7364658;19;20013;-71
2023/06/19 05:24:26;;;;;;;6.65;3.90;;;;;;;;;;7370545;19;20725;-72
2023/06/19 05:26:52;;;;;;;5.57;3.00;;;;;;;;;;7378809;19;20002;-72
2023/06/19 05:29:17;;;;;;;6.20;3.15;;;;;;;;;;7384512;19;20011;-72
2023/06/19 05:31:42;;;;;;;6.57;3.20;;;;;;;;;;7369051;19;20006;-71
2023/06/19 05:34:08;;;;;;;6.20;3.10;;;;;;;;;;7369929;19;20014;-71
2023/06/19 05:36:33;;;;;;;5.32;3.40;;;;;;;;;;7370166;19;20068;-72
2023/06/19 05:38:58;;;;;;;7.07;3.58;;;;;;;;;;7370810;19;20014;-71
2023/06/19 05:41:24;;;;;;;4.95;3.30;;;;;;;;;;7391266;19;20014;-72
2023/06/19 05:43:49;;;;;;;4.95;3.20;;;;;;;;;;7369263;19;20036;-71
2023/06/19 05:46:14;;;;;;;5.75;3.30;;;;;;;;;;7369959;19;20610;-72
2023/06/19 05:48:40;;;;;;;4.88;3.00;;;;;;;;;;7366392;19;20122;-71
2023/06/19 05:51:06;;;;;;;4.75;3.03;;;;;;;;;;7370163;19;20025;-71
2023/06/19 05:53:31;;;;;;;5.00;3.00;;;;;;;;;;7391661;19;20078;-72
2023/06/19 05:55:58;;;;;;;6.13;3.30;;;;;;;;;;7370435;19;20476;-71
2023/06/19 05:58:25;;;;;;;5.30;3.28;;;;;;;;;;7366929;19;20098;-71
2023/06/19 06:00:57;;;;;;;6.07;3.30;;;;;;;;;;7369986;19;20476;-71
2023/06/19 06:03:22;;;;;;;6.40;3.40;;;;;;;;;;7367727;19;20010;-72
2023/06/19 06:05:49;;;;;;;5.60;3.20;;;;;;;;;;7390508;19;20444;-71
2023/06/19 06:08:14;;;;;;;5.63;3.00;;;;;;;;;;7368430;19;20002;-71
2023/06/19 06:10:40;;;;;;;6.03;3.15;;;;;;;;;;7367745;19;20632;-72
2023/06/19 06:13:05;;;;;;;5.80;3.30;;;;;;;;;;7370461;19;20010;-63
2023/06/19 06:15:30;;;;;;;4.70;2.92;;;;;;;;;;7370262;19;20401;-64
2023/06/19 06:17:56;;;;;;;7.82;3.20;;;;;;;;;;7367806;19;20460;-62
2023/06/19 06:20:21;;;;;;;5.95;3.17;;;;;;;;;;7390670;19;20429;-62
2023/06/19 06:22:46;;;;;;;6.28;3.50;;;;;;;;;;7368391;19;20006;-63
2023/06/19 06:25:12;;;;;;;5.45;3.35;;;;;;;;;;7369019;19;20070;-63
2023/06/19 06:27:37;;;;;;;7.95;3.08;;;;;;;;;;7367915;19;20388;-63
2023/06/19 06:30:03;;;;;;;6.72;3.33;;;;;;;;;;7367855;19;20203;-63
2023/06/19 06:32:30;;;;;;;6.88;3.05;;;;;;;;;;7389965;19;20003;-64
2023/06/19 06:34:56;;;;;;;5.68;3.45;;;;;;;;;;7368413;19;20073;-63
2023/06/19 06:37:25;;;;;;;6.00;3.70;;;;;;;;;;7366938;19;20010;-63
2023/06/19 06:39:50;;;;;;;7.60;3.30;;;;;;;;;;7367563;19;20446;-63
2023/06/19 06:42:16;;;;;;;6.65;3.63;;;;;;;;;;7368197;19;20902;-63
2023/06/19 06:44:41;;;;;;;5.80;3.38;;;;;;;;;;7388223;19;20079;-65
2023/06/19 06:47:07;;;;;;;6.40;3.40;;;;;;;;;;7367705;19;20010;-63
2023/06/19 06:49:32;;;;;;;5.40;3.30;;;;;;;;;;7363205;19;20006;-65
2023/06/19 06:51:57;;;;;;;5.78;3.20;;;;;;;;;;7366876;19;20037;-64
2023/06/19 06:54:23;;;;;;;7.00;2.97;;;;;;;;;;7367254;19;20022;-62
2023/06/19 06:56:48;;;;;;;7.57;3.70;;;;;;;;;;7388458;19;20021;-63
2023/06/19 06:59:15;;;;;;;5.25;3.05;;;;;;;;;;7367087;19;20013;-63
2023/06/19 07:01:41;;;;;;;7.25;3.50;;;;;;;;;;7366494;19;20014;-63
2023/06/19 07:04:07;;;;;;;5.50;3.10;;;;;;;;;;7367149;19;20011;-62
2023/06/19 07:06:32;;;;;;;5.03;2.80;;;;;;;;;;7367283;19;20027;-63
2023/06/19 07:08:57;;;;;;;7.10;3.42;;;;;;;;;;7367790;19;20345;-64
2023/06/19 07:11:23;;;;;;;9.13;3.10;;;;;;;;;;7397022;19;20780;-63
2023/06/19 07:13:48;;;;;;;5.03;3.13;;;;;;;;;;7374543;19;20583;-62
2023/06/19 07:16:14;;;;;;;6.20;3.17;;;;;;;;;;7375098;19;20041;-63
2023/06/19 07:18:41;;;;;;;6.53;3.08;;;;;;;;;;7373050;19;20025;-64
2023/06/19 07:21:11;;;;;;;5.78;2.95;;;;;;;;;;7375862;19;20013;-63
2023/06/19 07:23:37;;;;;;;6.13;2.95;;;;;;;;;;7397646;19;20338;-64
2023/06/19 07:26:03;;;;;;;5.90;3.00;;;;;;;;;;7382260;19;20022;-63
2023/06/19 07:28:29;;;;;;;5.22;3.17;;;;;;;;;;7380874;19;20287;-63
2023/06/19 07:30:55;;;;;;;6.35;2.90;;;;;;;;;;7382528;19;20508;-63
2023/06/19 07:33:20;;;;;;;6.80;3.20;;;;;;;;;;7381294;19;20055;-63
2023/06/19 07:35:45;;;;;;;5.43;3.38;;;;;;;;;;7404701;19;20472;-64
2023/06/19 07:38:11;;;;;;;6.35;3.20;;;;;;;;;;7376619;19;20025;-63
2023/06/19 07:40:36;;;;;;;6.65;2.97;;;;;;;;;;7376740;19;20361;-64
2023/06/19 07:43:01;;;;;;;4.68;2.80;;;;;;;;;;7375453;19;20002;-63
2023/06/19 07:45:27;;;;;;;7.05;3.17;;;;;;;;;;7375511;19;20018;-64
2023/06/19 07:47:58;;;;;;;6.18;3.88;;;;;;;;;;7382798;19;20483;-62
2023/06/19 07:50:23;;;;;;;5.93;3.03;;;;;;;;;;7397597;19;20006;-62
2023/06/19 07:52:48;;;;;;;6.40;2.92;;;;;;;;;;7375179;19;20006;-61
2023/06/19 07:55:14;;;;;;;7.70;3.10;;;;;;;;;;7378621;19;20010;-65
2023/06/19 07:57:39;;;;;;;6.07;3.00;;;;;;;;;;7375741;19;20015;-63
2023/06/19 08:00:11;;;;;;;4.67;2.87;;;;;;;;;;7375832;19;20011;-63
2023/06/19 08:02:37;;;;;;;7.50;2.95;;;;;;;;;;7396451;19;20264;-62
2023/06/19 08:05:02;;;;;;;6.68;2.92;;;;;;;;;;7370779;19;20003;-62
2023/06/19 08:07:28;;;;;;;6.47;3.00;;;;;;;;;;7373095;19;20453;-63
2023/06/19 08:09:53;;;;;;;5.68;3.13;;;;;;;;;;7370798;19;20014;-64
2023/06/19 08:12:18;;;;;;;5.22;3.05;;;;;;;;;;7374322;19;20070;-61
2023/06/19 08:14:44;;;;;;;5.32;2.90;;;;;;;;;;7395148;19;20043;-64
2023/06/19 08:17:09;;;;;;;5.00;3.00;;;;;;;;;;7371225;19;20066;-63
2023/06/19 08:19:34;;;;;;;3.07;2.40;;;;;;;;;;7371133;19;20858;-64
2023/06/19 08:22:00;;;;;;;5.13;3.13;;;;;;;;;;7373220;19;20265;-62
2023/06/19 08:24:25;;;;;;;6.55;3.40;;;;;;;;;;7373923;19;20111;-64
2023/06/19 08:26:51;;;;;;;7.82;2.90;;;;;;;;;;7393802;19;19999;-63
2023/06/19 08:29:18;;;;;;;6.30;3.25;;;;;;;;;;7372958;19;20002;-64
2023/06/19 08:31:43;;;;;;;7.10;3.17;;;;;;;;;;7373355;19;20007;-62
2023/06/19 08:34:09;;;;;;;5.47;3.25;;;;;;;;;;7374049;19;20014;-63
2023/06/19 08:36:35;;;;;;;4.70;3.22;;;;;;;;;;7373971;19;20599;-62
2023/06/19 08:39:01;;;;;;;5.80;3.42;;;;;;;;;;7373638;19;19997;-62
2023/06/19 08:41:26;;;;;;;6.38;3.15;;;;;;;;;;7397095;19;20548;-63
2023/06/19 08:43:52;;;;;;;4.80;3.22;;;;;;;;;;7371738;19;20006;-62
2023/06/19 08:46:18;;;;;;;5.28;3.03;;;;;;;;;;7374010;19;20672;-62
2023/06/19 08:48:44;;;;;;;9.70;3.45;;;;;;;;;;7373084;19;20066;-63
2023/06/19 08:51:11;;;;;;;7.07;3.35;;;;;;;;;;7372464;19;20003;-61
2023/06/19 08:53:47;;;;;;;6.65;3.63;;;;;;;;;;7393934;19;20415;-63
2023/06/19 08:56:13;;;;;;;6.38;3.13;;;;;;;;;;7372521;19;20071;-61
2023/06/19 08:58:38;;;;;;;6.95;3.28;;;;;;;;;;7370578;19;20394;-63
2023/06/19 09:01:03;;;;;;;5.07;3.10;;;;;;;;;;7372736;19;20006;-61
2023/06/19 09:03:29;;;;;;;4.32;2.83;;;;;;;;;;7372760;19;20027;-64
2023/06/19 09:05:54;;;;;;;4.85;2.85;;;;;;;;;;7372122;19;20007;-63
2023/06/19 09:08:21;;;;;;;9.50;3.30;;;;;;;;;;7392228;19;20560;-63
2023/06/19 09:11:00;;;;;;;6.25;3.13;;;;;;;;;;7371974;19;20027;-64
2023/06/19 09:13:29;;;;;;;4.43;2.83;;;;;;;;;;7372173;19;20078;-63
2023/06/19 09:16:02;;;;;;;12.02;3.00;;;;;;;;;;7380054;19;20067;-63
2023/06/19 09:18:41;;;;;;;4.22;2.92;;;;;;;;;;7373235;19;20006;-63
2023/06/19 09:21:06;;;;;;;5.28;2.88;;;;;;;;;;7375617;19;20010;-63
2023/06/19 09:23:32;;;;;;;4.30;2.97;;;;;;;;;;7397589;19;19995;-63
2023/06/19 09:25:57;;;;;;;5.68;2.92;;;;;;;;;;7374646;19;20014;-63
2023/06/19 09:28:25;;;;;;;5.35;3.10;;;;;;;;;;7374573;19;20007;-63
2023/06/19 09:30:57;;;;;;;6.68;3.15;;;;;;;;;;7372941;19;20482;-63
2023/06/19 09:33:28;;;;;;;7.85;3.20;;;;;;;;;;7375500;19;20100;-64
2023/06/19 09:35:55;;;;;;;5.25;3.28;;;;;;;;;;7375760;19;20531;-65
2023/06/19 09:38:24;;;;;;;4.80;3.00;;;;;;;;;;7395439;19;20073;-65
2023/06/19 09:40:51;;;;;;;4.70;3.22;;;;;;;;;;7373500;19;20023;-65
2023/06/19 09:43:20;;;;;;;6.35;3.20;;;;;;;;;;7373957;19;20389;-65
2023/06/19 09:45:51;;;;;;;4.78;2.97;;;;;;;;;;7369800;19;20021;-65
2023/06/19 09:48:20;;;;;;;4.80;3.00;;;;;;;;;;7368782;19;20011;-64
2023/06/19 09:50:50;;;;;;;4.83;2.93;;;;;;;;;;7391075;19;20524;-66
2023/06/19 09:53:17;;;;;;;5.53;3.25;;;;;;;;;;7370664;19;20621;-65
2023/06/19 09:55:42;;;;;;;5.25;2.88;;;;;;;;;;7369984;19;20041;-65
2023/06/19 09:58:07;;;;;;;4.55;2.92;;;;;;;;;;7371054;19;20011;-65
2023/06/19 10:00:34;;;;;;;5.68;3.05;;;;;;;;;;7369143;19;20011;-65
2023/06/19 10:03:02;;;;;;;4.72;3.17;;;;;;;;;;7369722;19;20007;-64
2023/06/19 10:05:31;;;;;;;3.65;2.72;;;;;;;;;;7389120;19;20006;-65
2023/06/19 10:08:01;;;;;;;4.63;2.97;;;;;;;;;;7366921;19;20396;-65
2023/06/19 10:10:27;;;;;;;5.03;2.93;;;;;;;;;;7368173;19;20119;-64
2023/06/19 10:12:57;;;;;;;4.75;3.08;;;;;;;;;;7367741;19;20011;-64
2023/06/19 10:15:27;;;;;;;4.72;2.83;;;;;;;;;;7368164;19;20538;-65
2023/06/19 10:18:03;;;;;;;;;;;;;;;;;;7367171;19;20353;-64
2023/06/19 10:20:31;;;;;;;4.43;2.83;;;;;;;;;;7391403;19;19956;-64
2023/06/19 10:23:12;;;;;;;3.90;2.65;;;;;;;;;;7368719;19;20026;-65
2023/06/19 10:25:41;;;;;;;4.05;2.63;;;;;;;;;;7369256;19;20089;-65
2023/06/19 10:28:21;;;;;;;5.82;3.03;;;;;;;;;;7367983;19;20796;-65
2023/06/19 10:30:58;;;;;;;;;;;;;;;;;;7369291;19;20006;-65
2023/06/19 10:33:27;;;;;;;7.07;2.95;;;;;;;;;;7369146;19;19947;-65
2023/06/19 10:35:52;;;;;;;4.72;2.90;;;;;;;;;;7376310;19;20030;-65
2023/06/19 10:38:17;;;;;;;5.95;2.95;;;;;;;;;;7386602;19;20002;-65
2023/06/19 10:40:45;;;;;;;6.32;3.20;;;;;;;;;;7368367;19;20480;-65
2023/06/19 10:43:11;;;;;;;6.53;3.00;;;;;;;;;;7369503;19;20013;-64
2023/06/19 10:45:36;;;;;;;4.60;2.80;;;;;;;;;;7365669;19;20484;-64
2023/06/19 10:48:03;;;;;;;4.70;2.55;;;;;;;;;;7368468;19;20017;-64
2023/06/19 10:50:28;;;;;;;5.55;2.85;;;;;;;;;;7391332;19;19995;-65
2023/06/19 10:52:57;;;;;;;6.55;2.70;;;;;;;;;;7368591;19;20035;-66
2023/06/19 10:55:22;;;;;;;5.18;3.08;;;;;;;;;;7371578;19;20003;-64
2023/06/19 10:57:49;;;;;;;5.72;2.97;;;;;;;;;;7370480;19;20006;-64
2023/06/19 11:00:28;;;;;;;4.70;2.80;;;;;;;;;;7371971;19;20077;-64
2023/06/19 11:02:55;;;;;;;6.22;3.22;;;;;;;;;;7374375;19;20054;-64
2023/06/19 11:05:22;;;;;;;6.78;3.30;;;;;;;;;;7391820;19;20144;-64
2023/06/19 11:07:55;;;;;;;4.93;3.08;;;;;;;;;;7371621;19;20042;-64
2023/06/19 11:10:22;;;;;;;5.10;3.25;;;;;;;;;;7374064;19;20114;-64
2023/06/19 11:12:49;;;;;;;6.85;3.00;;;;;;;;;;7373704;19;20480;-64
2023/06/19 11:15:15;;;;;;;4.55;2.63;;;;;;;;;;7373134;19;20007;-64
2023/06/19 11:17:40;;;;;;;6.65;2.58;;;;;;;;;;7391476;19;20013;-65
2023/06/19 11:20:10;;;;;;;5.93;2.55;;;;;;;;;;7369780;19;20428;-63
2023/06/19 11:22:40;;;;;;;3.97;2.53;;;;;;;;;;7369977;19;20014;-65
2023/06/19 11:25:07;;;;;;;3.97;2.80;;;;;;;;;;7369435;19;20036;-64
2023/06/19 11:27:32;;;;;;;4.05;2.90;;;;;;;;;;7368680;19;20010;-63
2023/06/19 11:29:58;;;;;;;5.03;2.75;;;;;;;;;;7368462;19;20006;-66
2023/06/19 11:32:30;;;;;;;4.82;2.55;;;;;;;;;;7386526;19;20035;-63
2023/06/19 11:34:56;;;;;;;4.15;2.53;;;;;;;;;;7367026;19;20042;-63
2023/06/19 11:37:22;;;;;;;6.30;2.60;;;;;;;;;;7365445;19;20411;-62
2023/06/19 11:39:48;;;;;;;5.47;2.45;;;;;;;;;;7380887;19;20017;-64
2023/06/19 11:42:16;;;;;;;5.03;2.60;;;;;;;;;;7368387;19;20018;-64
2023/06/19 11:45:03;;;;;;;5.38;2.90;;;;;;;;;;7388390;19;20066;-64
2023/06/19 11:47:33;;;;;;;4.97;2.88;;;;;;;;;;7365415;19;20026;-65
2023/06/19 11:50:00;;;;;;;4.78;2.97;;;;;;;;;;7367253;19;20021;-64
2023/06/19 11:52:25;;;;;;;5.85;2.78;;;;;;;;;;7366829;19;20007;-65
2023/06/19 11:54:51;;;;;;;7.15;2.95;;;;;;;;;;7367333;19;20017;-64
2023/06/19 11:57:16;;;;;;;6.75;2.67;;;;;;;;;;7370721;19;20045;-63
2023/06/19 11:59:42;;;;;;;5.25;2.38;;;;;;;;;;7395739;19;20328;-64
2023/06/19 12:02:08;;;;;;;4.72;2.45;;;;;;;;;;7373809;19;20002;-64
2023/06/19 12:04:34;;;;;;;4.32;2.97;;;;;;;;;;7373046;19;20018;-65
2023/06/19 12:07:00;;;;;;;4.05;2.65;;;;;;;;;;7372398;19;20082;-65
2023/06/19 12:09:25;;;;;;;4.85;2.70;;;;;;;;;;7373764;19;20018;-65
2023/06/19 12:11:51;;;;;;;3.53;2.58;;;;;;;;;;7394861;19;20378;-65
2023/06/19 12:14:18;;;;;;;6.43;2.97;;;;;;;;;;7376778;19;20357;-65
2023/06/19 12:16:43;;;;;;;6.60;2.53;;;;;;;;;;7373169;19;20064;-65
2023/06/19 12:19:08;;;;;;;4.63;2.85;;;;;;;;;;7373186;19;20691;-65
2023/06/19 12:21:34;;;;;;;6.60;2.85;;;;;;;;;;7373639;19;20039;-65
2023/06/19 12:23:59;;;;;;;4.50;2.70;;;;;;;;;;7374754;19;20002;-65
2023/06/19 12:26:25;;;;;;;5.93;3.10;;;;;;;;;;7396040;19;20267;-65
2023/06/19 12:28:50;;;;;;;4.97;2.65;;;;;;;;;;7372484;19;20243;-65
2023/06/19 12:31:16;;;;;;;4.63;2.70;;;;;;;;;;7372885;19;20508;-65
2023/06/19 12:33:43;;;;;;;4.88;2.95;;;;;;;;;;7373092;19;20022;-65
2023/06/19 12:36:14;;;;;;;5.40;2.88;;;;;;;;;;7371742;19;20038;-64
2023/06/19 12:38:40;;;;;;;4.30;2.53;;;;;;;;;;7392237;19;20006;-64
2023/06/19 12:41:06;;;;;;;4.70;2.70;;;;;;;;;;7372330;19;20002;-65
2023/06/19 12:43:34;;;;;;;7.07;2.92;;;;;;;;;;7370790;19;20007;-64
2023/06/19 12:46:00;;;;;;;10.32;2.85;;;;;;;;;;7367304;19;20006;-65
2023/06/19 12:48:26;;;;;;;5.80;2.70;;;;;;;;;;7369597;19;20030;-65
2023/06/19 12:50:52;;;;;;;3.90;2.40;;;;;;;;;;7383466;19;20667;-65
2023/06/19 12:53:17;;;;;;;3.75;2.50;;;;;;;;;;7386181;19;20027;-66
2023/06/19 12:55:43;;;;;;;4.27;2.40;;;;;;;;;;7368566;19;20003;-64
2023/06/19 12:58:08;;;;;;;4.50;2.63;;;;;;;;;;7369755;19;20236;-64
2023/06/19 13:00:34;;;;;;;4.28;2.47;;;;;;;;;;7370360;19;20017;-65
2023/06/19 13:02:59;;;;;;;5.57;2.47;;;;;;;;;;7371189;19;20040;-65
2023/06/19 13:05:24;;;;;;;4.72;2.50;;;;;;;;;;7390603;19;20013;-64
2023/06/19 13:07:50;;;;;;;3.35;2.30;;;;;;;;;;7366956;19;20007;-69
2023/06/19 13:10:15;;;;;;;3.78;2.33;;;;;;;;;;7371630;19;20057;-66
2023/06/19 13:12:40;;;;;;;4.18;2.50;;;;;;;;;;7372124;19;20021;-67
2023/06/19 13:15:06;;;;;;;4.70;2.63;;;;;;;;;;7371254;19;20013;-67
2023/06/19 13:17:32;;;;;;;5.05;2.42;;;;;;;;;;7391736;19;20007;-68
2023/06/19 13:19:57;;;;;;;3.73;2.57;;;;;;;;;;7369927;19;20010;-70
2023/06/19 13:22:22;;;;;;;6.35;2.90;;;;;;;;;;7370221;19;20324;-68
2023/06/19 13:24:48;;;;;;;5.00;2.47;;;;;;;;;;7369915;19;20059;-70
2023/06/19 13:27:13;;;;;;;4.93;2.50;;;;;;;;;;7370733;19;20499;-69
2023/06/19 13:29:40;;;;;;;6.45;2.65;;;;;;;;;;7392218;19;20010;-70
2023/06/19 13:32:06;;;;;;;3.92;2.47;;;;;;;;;;7370166;19;20013;-66
2023/06/19 13:34:31;;;;;;;6.75;2.70;;;;;;;;;;7371143;19;20081;-67
2023/06/19 13:36:56;;;;;;;5.18;2.75;;;;;;;;;;7368372;19;20447;-67
2023/06/19 13:39:22;;;;;;;5.13;2.45;;;;;;;;;;7369504;19;20496;-70
2023/06/19 13:41:47;;;;;;;4.30;2.67;;;;;;;;;;7390076;19;20007;-69
2023/06/19 13:44:13;;;;;;;6.80;2.80;;;;;;;;;;7369694;19;20014;-69
2023/06/19 13:46:39;;;;;;;6.07;2.78;;;;;;;;;;7368583;19;20015;-70
2023/06/19 13:49:04;;;;;;;7.88;2.72;;;;;;;;;;7368800;19;20014;-70
2023/06/19 13:51:29;;;;;;;4.85;2.60;;;;;;;;;;7370970;19;20562;-70
2023/06/19 13:53:55;;;;;;;4.35;2.35;;;;;;;;;;7369610;19;20021;-71
2023/06/19 13:56:20;;;;;;;3.33;2.20;;;;;;;;;;7390851;19;19999;-69
2023/06/19 13:58:46;;;;;;;5.75;3.00;;;;;;;;;;7368961;19;20068;-69
2023/06/19 14:01:11;;;;;;;4.40;2.42;;;;;;;;;;7370024;19;20015;-63
2023/06/19 14:03:39;;;;;;;5.20;2.72;;;;;;;;;;7369727;19;20006;-62
2023/06/19 14:06:04;;;;;;;4.45;2.35;;;;;;;;;;7369983;19;20086;-62
2023/06/19 14:08:29;;;;;;;8.85;2.95;;;;;;;;;;7388403;19;20023;-63
2023/06/19 14:10:55;;;;;;;4.67;2.50;;;;;;;;;;7369174;19;20027;-62
2023/06/19 14:13:21;;;;;;;4.88;2.70;;;;;;;;;;7370524;19;20320;-63
2023/06/19 14:15:46;;;;;;;3.35;2.50;;;;;;;;;;7370247;19;20396;-63
2023/06/19 14:18:12;;;;;;;4.43;2.67;;;;;;;;;;7368470;19;20358;-63
2023/06/19 14:20:38;;;;;;;6.30;2.67;;;;;;;;;;7388989;19;19999;-70
2023/06/19 14:23:03;;;;;;;7.53;2.67;;;;;;;;;;7367365;19;20837;-69
2023/06/19 14:25:28;;;;;;;5.47;2.60;;;;;;;;;;7367677;19;20130;-69
2023/06/19 14:27:54;;;;;;;5.18;2.80;;;;;;;;;;7368064;19;20074;-69
2023/06/19 14:30:19;;;;;;;6.55;2.60;;;;;;;;;;7368061;19;20007;-70
2023/06/19 14:32:44;;;;;;;5.50;2.40;;;;;;;;;;7390221;19;20007;-69
2023/06/19 14:35:10;;;;;;;5.03;2.50;;;;;;;;;;7367985;19;20506;-69
2023/06/19 14:37:36;;;;;;;4.00;2.55;;;;;;;;;;7365824;19;20015;-69